createdAt,value
2018-09-03T00:02:49.263Z,16.71
2018-09-03T00:08:53.995Z,16.74
2018-09-03T00:14:58.716Z,16.95
2018-09-03T00:21:03.734Z,16.79
2018-09-03T00:27:08.986Z,16.72
2018-09-03T00:33:19.696Z,16.80
2018-09-03T00:39:29.620Z,16.79
2018-09-03T00:45:39.710Z,16.86
2018-09-03T00:51:44.543Z,16.77
2018-09-03T00:57:49.285Z,16.96
2018-09-03T01:03:54.098Z,17.27
2018-09-03T01:09:58.990Z,16.98
2018-09-03T01:16:03.918Z,16.91
2018-09-03T01:22:08.852Z,16.90
2018-09-03T01:28:14.495Z,16.97
2018-09-03T01:34:19.395Z,16.92
2018-09-03T01:40:24.148Z,17.00
2018-09-03T01:46:29.061Z,17.08
2018-09-03T01:52:34.038Z,17.14
2018-09-03T01:58:39.079Z,17.02
2018-09-03T02:04:44.419Z,17.24
2018-09-03T02:10:49.417Z,17.00
2018-09-03T02:16:54.144Z,17.05
2018-09-03T02:22:58.960Z,17.10
2018-09-03T02:29:03.720Z,16.95
2018-09-03T02:35:08.807Z,17.22
2018-09-03T02:41:14.421Z,16.98
2018-09-03T02:47:19.182Z,17.16
2018-09-03T02:53:24.009Z,16.94
2018-09-03T02:59:28.891Z,16.93
2018-09-03T03:05:33.804Z,16.86
2018-09-03T03:11:40.192Z,16.90
2018-09-03T03:17:45.690Z,17.01
2018-09-03T03:23:50.833Z,16.87
2018-09-03T03:29:55.690Z,16.96
2018-09-03T03:36:00.592Z,16.87
2018-09-03T03:42:05.347Z,16.89
2018-09-03T03:48:10.638Z,16.67
2018-09-03T03:54:16.148Z,16.63
2018-09-03T04:00:21.042Z,16.52
2018-09-03T04:06:26.018Z,16.58
2018-09-03T04:12:30.836Z,16.10
2018-09-03T04:18:35.775Z,16.26
2018-09-03T04:24:40.911Z,16.19
2018-09-03T04:30:45.863Z,16.38
2018-09-03T04:36:50.911Z,16.28
2018-09-03T04:42:55.810Z,16.18
2018-09-03T04:49:00.773Z,16.16
2018-09-03T04:55:05.582Z,16.35
2018-09-03T05:01:10.607Z,16.17
2018-09-03T05:07:15.609Z,16.24
2018-09-03T05:13:20.531Z,16.58
2018-09-03T05:19:25.315Z,16.77
2018-09-03T05:25:30.558Z,17.12
2018-09-03T05:31:35.391Z,17.15
2018-09-03T05:37:40.878Z,17.14
2018-09-03T05:43:46.470Z,17.04
2018-09-03T05:49:51.305Z,17.06
2018-09-03T05:55:56.313Z,17.25
2018-09-03T06:02:01.090Z,17.41
2018-09-03T06:08:06.466Z,17.57
2018-09-03T06:14:12.126Z,17.91
2018-09-03T06:20:17.082Z,17.79
2018-09-03T06:26:21.765Z,17.69
2018-09-03T06:32:26.496Z,17.66
2018-09-03T06:38:31.599Z,17.99
2018-09-03T06:44:36.626Z,18.07
2018-09-03T06:50:43.225Z,17.94
2018-09-03T06:56:48.051Z,18.84
2018-09-03T07:02:53.026Z,21.75
2018-09-03T07:08:57.799Z,23.70
2018-09-03T07:15:03.145Z,23.03
2018-09-03T07:21:08.096Z,22.04
2018-09-03T07:27:13.384Z,21.85
2018-09-03T07:33:18.628Z,21.88
2018-09-03T07:39:23.378Z,22.11
2018-09-03T07:45:28.774Z,22.01
2018-09-03T07:51:34.283Z,21.98
2018-09-03T07:57:39.773Z,22.23
2018-09-03T08:03:44.961Z,22.68
2018-09-03T08:09:49.702Z,22.65
2018-09-03T08:15:54.636Z,23.11
2018-09-03T08:21:59.523Z,23.52
2018-09-03T08:28:04.336Z,23.69
2018-09-03T08:34:10.022Z,23.50
2018-09-03T08:40:15.384Z,23.66
2018-09-03T08:46:20.299Z,23.49
2018-09-03T08:52:25.112Z,23.85
2018-09-03T08:58:30.386Z,23.26
2018-09-03T09:04:35.217Z,23.88
2018-09-03T09:10:40.990Z,24.11
2018-09-03T09:16:46.487Z,24.24
2018-09-03T09:22:51.216Z,24.16
2018-09-03T09:28:55.979Z,23.58
2018-09-03T09:35:01.426Z,23.21
2018-09-03T09:41:07.292Z,22.63
2018-09-03T09:47:13.842Z,22.10
2018-09-03T09:53:18.620Z,22.07
2018-09-03T09:59:23.587Z,21.90
2018-09-03T10:05:28.665Z,21.69
2018-09-03T10:11:33.690Z,21.51
2018-09-03T10:17:38.479Z,21.32
2018-09-03T10:23:43.402Z,21.60
2018-09-03T10:29:48.237Z,21.41
2018-09-03T10:35:53.132Z,21.62
2018-09-03T10:41:58.208Z,22.12
2018-09-03T10:48:03.571Z,21.85
2018-09-03T10:54:08.930Z,21.83
2018-09-03T11:00:15.551Z,21.77
2018-09-03T11:06:20.324Z,21.93
2018-09-03T11:12:25.819Z,21.95
2018-09-03T11:18:31.821Z,22.50
2018-09-03T11:24:37.396Z,22.84
2018-09-03T11:30:43.777Z,22.81
2018-09-03T11:36:48.821Z,22.52
2018-09-03T11:42:53.764Z,23.39
2018-09-03T11:48:58.912Z,23.97
2018-09-03T11:55:03.913Z,24.13
2018-09-03T12:01:09.331Z,23.91
2018-09-03T12:07:14.574Z,24.17
2018-09-03T12:13:19.516Z,24.96
2018-09-03T12:19:24.268Z,25.37
2018-09-03T12:25:28.960Z,25.20
2018-09-03T12:31:33.765Z,25.59
2018-09-03T12:37:38.903Z,26.28
2018-09-03T12:43:44.676Z,27.61
2018-09-03T12:49:50.083Z,29.20
2018-09-03T12:55:54.879Z,30.46
2018-09-03T13:01:59.609Z,29.61
2018-09-03T13:08:04.366Z,28.80
2018-09-03T13:14:09.487Z,28.71
2018-09-03T13:20:15.173Z,29.85
2018-09-03T13:26:19.868Z,29.57
2018-09-03T13:32:24.800Z,28.33
2018-09-03T13:38:29.728Z,30.18
2018-09-03T13:44:34.511Z,32.16
2018-09-03T13:50:40.287Z,31.64
2018-09-03T13:56:45.351Z,33.25
2018-09-03T14:02:50.473Z,31.93
2018-09-03T14:08:55.619Z,30.98
2018-09-03T14:15:00.790Z,30.43
2018-09-03T14:21:06.110Z,30.78
2018-09-03T14:27:11.225Z,31.32
2018-09-03T14:33:16.696Z,31.13
2018-09-03T14:39:21.761Z,30.99
2018-09-03T14:45:26.621Z,30.71
2018-09-03T14:51:31.610Z,30.07
2018-09-03T14:57:36.356Z,28.38
2018-09-03T15:03:41.354Z,29.36
2018-09-03T15:09:47.285Z,28.70
2018-09-03T15:15:52.355Z,27.83
2018-09-03T15:21:57.000Z,27.54
2018-09-03T15:28:01.726Z,26.69
2018-09-03T15:34:06.773Z,26.48
2018-09-03T15:40:12.822Z,25.71
2018-09-03T15:46:17.813Z,25.20
2018-09-03T15:52:22.835Z,24.52
2018-09-03T15:58:27.698Z,23.99
2018-09-03T16:04:32.405Z,23.80
2018-09-03T16:17:46.047Z,23.57
2018-09-03T16:23:51.020Z,23.41
2018-09-03T16:29:55.835Z,23.57
2018-09-03T16:36:01.257Z,23.48
2018-09-03T16:42:06.323Z,23.45
2018-09-03T16:48:11.956Z,23.36
2018-09-03T16:54:16.895Z,23.43
2018-09-03T17:00:21.684Z,23.20
2018-09-03T17:06:26.381Z,23.25
2018-09-03T17:12:31.713Z,23.24
2018-09-03T17:18:37.052Z,23.16
2018-09-03T17:24:43.889Z,23.07
2018-09-03T17:30:48.869Z,22.88
2018-09-03T17:36:53.865Z,22.82
2018-09-03T17:42:59.060Z,22.60
2018-09-03T17:49:03.950Z,22.54
2018-09-03T17:55:10.146Z,22.38
2018-09-03T18:01:15.072Z,22.29
2018-09-03T18:07:19.860Z,22.07
2018-09-03T18:13:24.672Z,21.83
2018-09-03T18:19:29.393Z,21.80
2018-09-03T18:25:34.362Z,21.73
2018-09-03T18:31:39.084Z,21.60
2018-09-03T18:37:44.178Z,21.68
2018-09-03T18:43:49.892Z,21.39
2018-09-03T18:49:54.686Z,21.22
2018-09-03T18:55:59.656Z,21.28
2018-09-03T19:02:04.878Z,21.26
2018-09-03T19:08:11.144Z,21.11
2018-09-03T19:14:16.228Z,21.06
2018-09-03T19:20:21.120Z,20.99
2018-09-03T19:26:25.929Z,20.90
2018-09-03T19:32:30.721Z,20.78
2018-09-03T19:38:35.730Z,20.72
2018-09-03T19:44:41.537Z,20.76
2018-09-03T19:50:46.631Z,20.71
2018-09-03T19:56:51.679Z,20.74
2018-09-03T20:02:56.506Z,20.65
2018-09-03T20:09:01.365Z,20.65
2018-09-03T20:15:08.532Z,20.57
2018-09-03T20:21:14.161Z,20.60
2018-09-03T20:27:18.966Z,20.63
2018-09-03T20:33:24.009Z,20.64
2018-09-03T20:39:28.873Z,20.57
2018-09-03T20:45:33.696Z,20.56
2018-09-03T20:51:38.937Z,20.57
2018-09-03T20:57:43.818Z,20.60
2018-09-03T21:03:49.034Z,20.41
2018-09-03T21:09:53.813Z,20.31
2018-09-03T21:15:58.649Z,20.26
2018-09-03T21:22:03.514Z,20.27
2018-09-03T21:28:08.734Z,20.16
2018-09-03T21:34:14.617Z,20.16
2018-09-03T21:40:19.589Z,20.34
2018-09-03T21:46:24.381Z,20.26
2018-09-03T21:52:29.393Z,20.19
2018-09-03T21:58:34.237Z,20.15
2018-09-03T22:04:42.154Z,20.17
2018-09-03T22:10:47.122Z,20.15
2018-09-03T22:16:51.847Z,20.19
2018-09-03T22:22:56.703Z,20.14
2018-09-03T22:29:01.481Z,20.08
2018-09-03T22:35:06.403Z,20.13
2018-09-03T22:41:11.482Z,20.04
2018-09-03T22:47:16.485Z,19.81
2018-09-03T22:53:21.176Z,19.76
2018-09-03T22:59:25.940Z,19.68
2018-09-03T23:05:30.787Z,19.85
2018-09-03T23:11:35.818Z,19.62
2018-09-03T23:17:40.719Z,19.58
2018-09-03T23:23:45.817Z,19.78
2018-09-03T23:29:50.659Z,19.67
2018-09-03T23:35:55.415Z,19.89
2018-09-03T23:42:00.259Z,19.74
2018-09-03T23:48:05.302Z,19.92
2018-09-03T23:54:10.376Z,19.76
